createdAt,value
2017-11-06T00:51:30.175Z,9.57
2017-11-06T00:56:32.951Z,9.83
2017-11-06T01:01:36.251Z,9.50
2017-11-06T01:06:39.605Z,10.67
2017-11-06T01:11:42.743Z,10.83
2017-11-06T01:16:45.326Z,10.90
2017-11-06T01:21:48.878Z,10.10
2017-11-06T01:26:51.489Z,10.30
2017-11-06T01:31:55.813Z,11.80
2017-11-06T01:36:58.538Z,11.23
2017-11-06T01:42:02.283Z,11.33
2017-11-06T01:47:04.890Z,11.90
2017-11-06T01:52:07.700Z,12.30
2017-11-06T01:57:10.296Z,11.37
2017-11-06T02:02:13.578Z,12.57
2017-11-06T02:07:16.204Z,13.00
2017-11-06T02:12:19.367Z,13.30
2017-11-06T02:17:21.988Z,13.27
2017-11-06T02:22:25.171Z,13.07
2017-11-06T02:27:27.765Z,13.03
2017-11-06T02:32:30.735Z,12.30
2017-11-06T02:37:33.319Z,13.13
2017-11-06T02:42:36.706Z,13.60
2017-11-06T02:47:40.094Z,12.77
2017-11-06T02:52:43.459Z,13.07
2017-11-06T02:57:46.085Z,13.23
2017-11-06T03:02:48.948Z,12.70
2017-11-06T03:07:52.296Z,12.87
2017-11-06T03:12:55.444Z,12.77
2017-11-06T03:17:58.028Z,13.57
2017-11-06T03:23:01.288Z,13.53
2017-11-06T03:28:03.914Z,12.70
2017-11-06T03:33:07.279Z,11.33
2017-11-06T03:38:09.858Z,12.70
2017-11-06T03:43:13.136Z,12.33
2017-11-06T03:48:15.735Z,11.43
2017-11-06T03:53:18.485Z,11.87
2017-11-06T03:58:21.109Z,11.87
2017-11-06T04:03:24.600Z,12.03
2017-11-06T04:08:27.223Z,13.00
2017-11-06T04:13:30.780Z,12.40
2017-11-06T04:18:33.366Z,12.30
2017-11-06T04:23:36.015Z,13.17
2017-11-06T04:28:38.637Z,12.53
2017-11-06T04:33:44.566Z,13.57
2017-11-06T04:38:47.203Z,13.43
2017-11-06T04:43:50.629Z,11.87
2017-11-06T04:48:54.005Z,13.00
2017-11-06T04:53:56.668Z,11.93
2017-11-06T04:58:59.298Z,12.33
2017-11-06T05:04:02.635Z,12.67
2017-11-06T05:09:05.280Z,12.87
2017-11-06T05:14:08.524Z,11.87
2017-11-06T05:19:11.281Z,13.10
2017-11-06T05:24:15.529Z,12.53
2017-11-06T05:29:18.147Z,12.87
2017-11-06T05:34:21.530Z,13.30
2017-11-06T05:39:24.915Z,12.23
2017-11-06T05:44:27.757Z,14.10
2017-11-06T05:49:30.365Z,11.70
2017-11-06T05:54:33.831Z,12.53
2017-11-06T05:59:36.429Z,12.57
2017-11-06T06:04:39.894Z,13.13
2017-11-06T06:09:42.479Z,12.77
2017-11-06T06:14:46.032Z,12.87
2017-11-06T06:19:48.657Z,12.20
2017-11-06T06:24:51.932Z,12.97
2017-11-06T06:29:54.556Z,13.47
2017-11-06T06:34:58.038Z,12.43
2017-11-06T06:40:00.627Z,12.43
2017-11-06T06:45:03.292Z,13.23
2017-11-06T06:50:06.682Z,11.20
2017-11-06T06:55:10.043Z,18.97
2017-11-06T07:00:13.413Z,12.83
2017-11-06T07:05:16.275Z,12.40
2017-11-06T07:10:19.663Z,13.73
2017-11-06T07:15:23.217Z,12.27
2017-11-06T07:20:26.599Z,11.13
2017-11-06T07:25:29.580Z,10.97
2017-11-06T07:30:32.206Z,11.97
2017-11-06T07:35:35.489Z,12.07
2017-11-06T07:40:38.159Z,11.43
2017-11-06T07:45:41.624Z,17.57
2017-11-06T07:50:44.257Z,12.20
2017-11-06T07:55:47.827Z,11.27
2017-11-06T08:00:50.452Z,11.37
2017-11-06T08:05:53.217Z,10.97
2017-11-06T08:10:55.857Z,11.30
2017-11-06T08:15:58.722Z,10.07
2017-11-06T08:21:01.359Z,11.17
2017-11-06T08:26:04.760Z,9.93
2017-11-06T08:31:07.380Z,11.40
2017-11-06T08:36:12.246Z,11.80
2017-11-06T08:41:15.626Z,10.43
2017-11-06T08:46:18.986Z,10.07
2017-11-06T08:51:22.370Z,10.27
2017-11-06T08:56:25.153Z,9.83
2017-11-06T09:01:27.765Z,9.93
2017-11-06T09:06:30.716Z,10.97
2017-11-06T09:11:33.316Z,10.17
2017-11-06T09:16:36.091Z,10.17
2017-11-06T09:21:38.725Z,10.13
2017-11-06T09:26:41.769Z,9.40
2017-11-06T09:31:44.391Z,8.93
2017-11-06T09:36:47.458Z,8.97
2017-11-06T09:41:50.061Z,10.77
2017-11-06T09:46:53.196Z,9.10
2017-11-06T09:51:55.769Z,9.57
2017-11-06T09:57:01.368Z,9.77
2017-11-06T10:02:03.992Z,9.17
2017-11-06T10:07:08.088Z,9.50
2017-11-06T10:12:10.717Z,9.10
2017-11-06T10:17:14.260Z,10.03
2017-11-06T10:22:16.888Z,10.33
2017-11-06T10:27:20.134Z,10.37
2017-11-06T10:32:22.767Z,10.50
2017-11-06T10:37:26.140Z,11.10
2017-11-06T10:42:28.768Z,11.00
2017-11-06T10:47:33.001Z,10.87
2017-11-06T10:52:36.370Z,10.97
2017-11-06T10:57:39.542Z,11.10
2017-11-06T11:02:42.922Z,10.57
2017-11-06T11:07:46.518Z,11.37
2017-11-06T11:12:49.160Z,10.80
2017-11-06T11:17:53.499Z,12.10
2017-11-06T11:22:56.873Z,10.57
2017-11-06T11:28:00.251Z,10.40
2017-11-06T11:33:02.863Z,11.13
2017-11-06T11:38:06.329Z,10.80
2017-11-06T11:43:08.991Z,11.07
2017-11-06T11:48:12.425Z,11.00
2017-11-06T11:53:15.046Z,10.10
2017-11-06T11:58:17.707Z,10.53
2017-11-06T12:03:20.319Z,9.70
2017-11-06T12:08:22.969Z,9.60
2017-11-06T12:13:26.356Z,9.67
2017-11-06T12:18:29.217Z,9.43
2017-11-06T12:23:31.835Z,9.50
2017-11-06T12:28:34.502Z,9.57
2017-11-06T12:33:37.114Z,9.97
2017-11-06T12:38:40.483Z,10.47
2017-11-06T12:43:43.112Z,8.63
2017-11-06T12:48:45.761Z,9.10
2017-11-06T12:53:48.376Z,9.70
2017-11-06T12:58:51.685Z,8.67
2017-11-06T13:03:54.308Z,8.67
2017-11-06T13:08:58.112Z,8.93
2017-11-06T13:14:00.727Z,8.47
2017-11-06T13:19:04.247Z,9.93
2017-11-06T13:24:07.625Z,9.70
2017-11-06T13:29:12.435Z,9.33
2017-11-06T13:34:15.064Z,10.03
2017-11-06T13:39:18.524Z,9.90
2017-11-06T13:44:21.139Z,9.17
2017-11-06T13:49:25.074Z,9.40
2017-11-06T13:54:28.448Z,13.07
2017-11-06T13:59:31.209Z,10.87
2017-11-06T14:04:33.833Z,10.13
2017-11-06T14:09:36.674Z,9.60
2017-11-06T14:14:39.292Z,11.43
2017-11-06T14:19:42.908Z,11.43
2017-11-06T14:24:46.292Z,11.50
2017-11-06T14:29:49.888Z,11.90
2017-11-06T14:34:52.514Z,10.97
2017-11-06T14:39:55.382Z,11.73
2017-11-06T14:44:58.007Z,11.50
2017-11-06T14:50:01.253Z,10.87
2017-11-06T14:55:04.635Z,10.30
2017-11-06T15:00:07.594Z,11.00
2017-11-06T15:05:10.211Z,10.17
2017-11-06T15:10:13.391Z,9.67
2017-11-06T15:15:16.761Z,10.43
2017-11-06T15:20:19.540Z,11.60
2017-11-06T15:25:22.162Z,23.33
2017-11-06T15:30:25.532Z,11.50
2017-11-06T15:35:28.149Z,11.87
2017-11-06T15:40:31.246Z,11.63
2017-11-06T15:45:33.873Z,13.30
2017-11-06T15:50:37.123Z,12.37
2017-11-06T15:55:39.754Z,13.20
2017-11-06T16:00:43.973Z,13.27
2017-11-06T16:05:47.357Z,12.77
2017-11-06T16:10:50.432Z,13.73
2017-11-06T16:15:53.050Z,12.47
2017-11-06T16:20:56.529Z,13.77
2017-11-06T16:25:59.896Z,14.30
2017-11-06T16:31:03.263Z,52.93
2017-11-06T16:36:05.868Z,18.03
2017-11-06T16:41:09.509Z,16.73
2017-11-06T16:46:12.227Z,15.07
2017-11-06T16:51:16.026Z,17.17
2017-11-06T16:56:18.682Z,17.50
2017-11-06T17:01:21.626Z,17.57
2017-11-06T17:06:24.314Z,17.27
2017-11-06T17:11:28.660Z,18.13
2017-11-06T17:16:31.404Z,16.80
2017-11-06T17:21:34.614Z,16.77
2017-11-06T17:26:37.273Z,17.40
2017-11-06T17:31:41.242Z,18.20
2017-11-06T17:36:43.850Z,16.73
2017-11-06T17:41:46.842Z,17.90
2017-11-06T17:46:49.517Z,18.40
2017-11-06T17:51:52.666Z,18.27
2017-11-06T17:56:56.086Z,17.93
2017-11-06T18:01:59.707Z,19.63
2017-11-06T18:07:02.443Z,24.73
2017-11-06T18:12:06.022Z,18.73
2017-11-06T18:17:09.085Z,18.57
2017-11-06T18:22:12.115Z,19.40
2017-11-06T18:27:14.710Z,20.40
2017-11-06T18:32:18.877Z,20.47
2017-11-06T18:37:22.271Z,20.23
2017-11-06T18:42:25.493Z,18.27
2017-11-06T18:47:28.081Z,16.77
2017-11-06T18:52:31.446Z,16.73
2017-11-06T18:57:34.475Z,15.87
2017-11-06T19:02:39.768Z,16.13
2017-11-06T19:07:43.615Z,15.03
2017-11-06T19:12:49.817Z,15.50
2017-11-06T19:17:53.841Z,17.93
2017-11-06T19:22:57.850Z,15.63
2017-11-06T19:28:07.477Z,16.53
2017-11-06T19:33:11.513Z,16.97
2017-11-06T19:38:16.170Z,17.30
2017-11-06T19:43:24.791Z,15.43
2017-11-06T19:48:27.540Z,15.17
2017-11-06T19:53:31.129Z,15.10
2017-11-06T19:58:33.734Z,17.87
2017-11-06T20:03:37.027Z,21.47
2017-11-06T20:08:39.892Z,21.70
2017-11-06T20:13:44.273Z,22.13
2017-11-06T20:18:46.967Z,22.30
2017-11-06T20:23:50.734Z,19.70
2017-11-06T20:28:53.358Z,21.00
2017-11-06T20:33:56.777Z,23.67
2017-11-06T20:38:59.509Z,24.97
2017-11-06T20:44:03.119Z,22.03
2017-11-06T20:49:06.611Z,22.60
2017-11-06T20:54:10.109Z,18.43
2017-11-06T20:59:12.764Z,17.37
2017-11-06T21:04:16.284Z,20.27
2017-11-06T21:09:18.906Z,21.77
2017-11-06T21:14:23.365Z,21.27
2017-11-06T21:19:26.766Z,23.40
2017-11-06T21:24:30.851Z,22.97
2017-11-06T21:29:39.530Z,22.27
2017-11-06T21:34:42.526Z,23.43
2017-11-06T21:39:45.575Z,23.40
2017-11-06T21:44:48.566Z,21.63
2017-11-06T21:49:51.388Z,19.90
2017-11-06T21:54:54.862Z,19.60
2017-11-06T21:59:58.377Z,20.73
2017-11-06T22:05:01.578Z,19.37
2017-11-06T22:10:06.522Z,18.23
2017-11-06T22:15:11.706Z,17.23
2017-11-06T22:20:16.466Z,16.70
2017-11-06T22:25:23.070Z,17.20
2017-11-06T22:30:26.023Z,15.77
2017-11-06T22:35:30.904Z,16.20
2017-11-06T22:40:34.818Z,15.80
2017-11-06T22:45:38.263Z,15.70
2017-11-06T22:50:41.054Z,15.37
2017-11-06T22:55:45.957Z,15.73
2017-11-06T23:00:51.402Z,13.97
2017-11-06T23:05:55.605Z,14.70
2017-11-06T23:11:01.590Z,14.77
2017-11-06T23:16:05.534Z,14.50
2017-11-06T23:21:09.307Z,14.50
2017-11-06T23:26:13.805Z,14.03
2017-11-06T23:31:17.104Z,14.07
2017-11-06T23:36:21.745Z,14.47
2017-11-06T23:41:27.133Z,13.73
2017-11-06T23:46:32.265Z,14.37
2017-11-06T23:51:35.082Z,14.13
2017-11-06T23:56:38.707Z,14.60
